sensor_id;sensor_type;location;lat;lon;timestamp;P1;durP1;ratioP1;P2;durP2;ratioP2
32032;SDS011;31720;52.638;9.216;2023-08-01T00:01:54;1.48;;;0.70;;
32032;SDS011;31720;52.638;9.216;2023-08-01T00:04:56;0.60;;;0.60;;
32032;SDS011;31720;52.638;9.216;2023-08-01T00:07:57;0.73;;;0.60;;
32032;SDS011;31720;52.638;9.216;2023-08-01T00:10:58;1.00;;;0.82;;
32032;SDS011;31720;52.638;9.216;2023-08-01T00:14:01;1.88;;;0.85;;
32032;SDS011;31720;52.638;9.216;2023-08-01T00:17:03;1.60;;;1.00;;
32032;SDS011;31720;52.638;9.216;2023-08-01T00:20:05;2.50;;;0.90;;
32032;SDS011;31720;52.638;9.216;2023-08-01T00:23:07;4.25;;;1.08;;
32032;SDS011;31720;52.638;9.216;2023-08-01T00:26:09;3.03;;;0.75;;
32032;SDS011;31720;52.638;9.216;2023-08-01T00:29:11;1.08;;;0.75;;
32032;SDS011;31720;52.638;9.216;2023-08-01T00:32:13;1.35;;;0.80;;
32032;SDS011;31720;52.638;9.216;2023-08-01T00:35:14;2.92;;;0.60;;
32032;SDS011;31720;52.638;9.216;2023-08-01T00:38:16;0.80;;;0.57;;
32032;SDS011;31720;52.638;9.216;2023-08-01T00:41:17;1.05;;;0.65;;
32032;SDS011;31720;52.638;9.216;2023-08-01T00:44:20;0.95;;;0.65;;
32032;SDS011;31720;52.638;9.216;2023-08-01T00:47:22;0.88;;;0.63;;
32032;SDS011;31720;52.638;9.216;2023-08-01T00:50:23;1.00;;;0.80;;
32032;SDS011;31720;52.638;9.216;2023-08-01T00:53:25;4.57;;;1.02;;
32032;SDS011;31720;52.638;9.216;2023-08-01T00:56:27;1.02;;;0.90;;
32032;SDS011;31720;52.638;9.216;2023-08-01T00:59:30;8.77;;;1.15;;
32032;SDS011;31720;52.638;9.216;2023-08-01T01:02:31;1.40;;;0.77;;
32032;SDS011;31720;52.638;9.216;2023-08-01T01:05:34;1.58;;;0.98;;
32032;SDS011;31720;52.638;9.216;2023-08-01T01:08:39;1.02;;;0.70;;
32032;SDS011;31720;52.638;9.216;2023-08-01T01:11:41;0.85;;;0.80;;
32032;SDS011;31720;52.638;9.216;2023-08-01T01:14:44;1.45;;;0.80;;
32032;SDS011;31720;52.638;9.216;2023-08-01T01:17:46;1.25;;;0.80;;
32032;SDS011;31720;52.638;9.216;2023-08-01T01:20:48;0.95;;;0.88;;
32032;SDS011;31720;52.638;9.216;2023-08-01T01:23:50;1.83;;;1.38;;
32032;SDS011;31720;52.638;9.216;2023-08-01T01:26:52;1.80;;;1.33;;
32032;SDS011;31720;52.638;9.216;2023-08-01T01:29:56;1.73;;;1.25;;
32032;SDS011;31720;52.638;9.216;2023-08-01T01:32:58;2.13;;;1.40;;
32032;SDS011;31720;52.638;9.216;2023-08-01T01:36:01;2.33;;;1.52;;
32032;SDS011;31720;52.638;9.216;2023-08-01T01:39:03;2.22;;;1.70;;
32032;SDS011;31720;52.638;9.216;2023-08-01T01:42:04;2.00;;;1.40;;
32032;SDS011;31720;52.638;9.216;2023-08-01T01:45:06;2.95;;;1.85;;
32032;SDS011;31720;52.638;9.216;2023-08-01T01:48:08;2.83;;;1.50;;
32032;SDS011;31720;52.638;9.216;2023-08-01T01:51:11;8.80;;;1.70;;
32032;SDS011;31720;52.638;9.216;2023-08-01T01:54:12;3.25;;;1.83;;
32032;SDS011;31720;52.638;9.216;2023-08-01T01:57:13;2.67;;;1.70;;
32032;SDS011;31720;52.638;9.216;2023-08-01T02:00:15;2.50;;;1.58;;
32032;SDS011;31720;52.638;9.216;2023-08-01T02:03:16;2.63;;;2.08;;
32032;SDS011;31720;52.638;9.216;2023-08-01T02:06:19;3.70;;;2.58;;
32032;SDS011;31720;52.638;9.216;2023-08-01T02:09:20;2.72;;;2.03;;
32032;SDS011;31720;52.638;9.216;2023-08-01T02:12:22;3.78;;;2.20;;
32032;SDS011;31720;52.638;9.216;2023-08-01T02:15:23;4.75;;;2.67;;
32032;SDS011;31720;52.638;9.216;2023-08-01T02:18:25;3.50;;;2.40;;
32032;SDS011;31720;52.638;9.216;2023-08-01T02:21:27;4.25;;;2.60;;
32032;SDS011;31720;52.638;9.216;2023-08-01T02:24:29;5.63;;;2.28;;
32032;SDS011;31720;52.638;9.216;2023-08-01T02:27:30;7.40;;;2.25;;
32032;SDS011;31720;52.638;9.216;2023-08-01T02:30:32;3.67;;;2.42;;
32032;SDS011;31720;52.638;9.216;2023-08-01T02:33:33;3.83;;;2.53;;
32032;SDS011;31720;52.638;9.216;2023-08-01T02:36:36;3.47;;;2.40;;
32032;SDS011;31720;52.638;9.216;2023-08-01T02:39:38;4.82;;;2.70;;
32032;SDS011;31720;52.638;9.216;2023-08-01T02:42:39;4.15;;;2.63;;
32032;SDS011;31720;52.638;9.216;2023-08-01T02:45:41;6.15;;;2.28;;
32032;SDS011;31720;52.638;9.216;2023-08-01T02:48:42;2.72;;;1.90;;
32032;SDS011;31720;52.638;9.216;2023-08-01T02:51:45;2.97;;;1.98;;
32032;SDS011;31720;52.638;9.216;2023-08-01T02:54:46;1.52;;;1.35;;
32032;SDS011;31720;52.638;9.216;2023-08-01T02:57:48;3.10;;;1.60;;
32032;SDS011;31720;52.638;9.216;2023-08-01T03:00:49;1.90;;;1.58;;
32032;SDS011;31720;52.638;9.216;2023-08-01T03:03:51;3.05;;;1.83;;
32032;SDS011;31720;52.638;9.216;2023-08-01T03:06:53;2.25;;;1.23;;
32032;SDS011;31720;52.638;9.216;2023-08-01T03:09:55;1.65;;;1.20;;
32032;SDS011;31720;52.638;9.216;2023-08-01T03:12:56;2.20;;;1.20;;
32032;SDS011;31720;52.638;9.216;2023-08-01T03:15:57;2.00;;;1.30;;
32032;SDS011;31720;52.638;9.216;2023-08-01T03:18:59;3.55;;;1.38;;
32032;SDS011;31720;52.638;9.216;2023-08-01T03:22:05;2.42;;;1.70;;
32032;SDS011;31720;52.638;9.216;2023-08-01T03:25:07;1.63;;;1.27;;
32032;SDS011;31720;52.638;9.216;2023-08-01T03:28:09;2.70;;;1.25;;
32032;SDS011;31720;52.638;9.216;2023-08-01T03:31:10;2.58;;;1.45;;
32032;SDS011;31720;52.638;9.216;2023-08-01T03:34:12;1.30;;;0.90;;
32032;SDS011;31720;52.638;9.216;2023-08-01T03:37:15;2.50;;;1.58;;
32032;SDS011;31720;52.638;9.216;2023-08-01T03:40:18;2.28;;;1.35;;
32032;SDS011;31720;52.638;9.216;2023-08-01T03:43:19;2.08;;;1.50;;
32032;SDS011;31720;52.638;9.216;2023-08-01T03:46:23;1.85;;;1.33;;
32032;SDS011;31720;52.638;9.216;2023-08-01T03:49:25;2.95;;;1.20;;
32032;SDS011;31720;52.638;9.216;2023-08-01T03:52:27;2.40;;;1.58;;
32032;SDS011;31720;52.638;9.216;2023-08-01T03:55:29;3.05;;;1.50;;
32032;SDS011;31720;52.638;9.216;2023-08-01T03:58:30;2.10;;;1.17;;
32032;SDS011;31720;52.638;9.216;2023-08-01T04:01:31;2.28;;;1.55;;
32032;SDS011;31720;52.638;9.216;2023-08-01T04:04:33;1.88;;;1.25;;
32032;SDS011;31720;52.638;9.216;2023-08-01T04:07:36;2.22;;;1.30;;
32032;SDS011;31720;52.638;9.216;2023-08-01T04:10:37;1.50;;;1.10;;
32032;SDS011;31720;52.638;9.216;2023-08-01T04:13:39;2.28;;;1.30;;
32032;SDS011;31720;52.638;9.216;2023-08-01T04:16:40;1.48;;;1.10;;
32032;SDS011;31720;52.638;9.216;2023-08-01T04:19:41;1.55;;;1.38;;
32032;SDS011;31720;52.638;9.216;2023-08-01T04:22:44;2.80;;;1.52;;
32032;SDS011;31720;52.638;9.216;2023-08-01T04:25:45;1.02;;;0.95;;
32032;SDS011;31720;52.638;9.216;2023-08-01T04:28:47;3.08;;;1.40;;
32032;SDS011;31720;52.638;9.216;2023-08-01T04:31:48;3.20;;;1.70;;
32032;SDS011;31720;52.638;9.216;2023-08-01T04:34:50;2.75;;;1.60;;
32032;SDS011;31720;52.638;9.216;2023-08-01T04:37:52;2.97;;;1.13;;
32032;SDS011;31720;52.638;9.216;2023-08-01T04:40:54;2.40;;;1.20;;
32032;SDS011;31720;52.638;9.216;2023-08-01T04:43:55;11.98;;;1.30;;
32032;SDS011;31720;52.638;9.216;2023-08-01T04:46:56;1.58;;;1.10;;
32032;SDS011;31720;52.638;9.216;2023-08-01T04:49:58;3.17;;;1.38;;
32032;SDS011;31720;52.638;9.216;2023-08-01T04:53:00;2.88;;;1.50;;
32032;SDS011;31720;52.638;9.216;2023-08-01T04:56:02;2.95;;;1.60;;
32032;SDS011;31720;52.638;9.216;2023-08-01T04:59:04;3.15;;;1.70;;
32032;SDS011;31720;52.638;9.216;2023-08-01T05:02:06;8.13;;;1.63;;
32032;SDS011;31720;52.638;9.216;2023-08-01T05:05:07;2.33;;;1.52;;
32032;SDS011;31720;52.638;9.216;2023-08-01T05:08:10;2.58;;;1.73;;
32032;SDS011;31720;52.638;9.216;2023-08-01T05:11:12;2.97;;;1.80;;
32032;SDS011;31720;52.638;9.216;2023-08-01T05:14:13;3.53;;;2.13;;
32032;SDS011;31720;52.638;9.216;2023-08-01T05:17:15;4.03;;;2.35;;
32032;SDS011;31720;52.638;9.216;2023-08-01T05:20:16;4.55;;;2.53;;
32032;SDS011;31720;52.638;9.216;2023-08-01T05:23:19;3.67;;;2.58;;
32032;SDS011;31720;52.638;9.216;2023-08-01T05:26:21;4.50;;;2.63;;
32032;SDS011;31720;52.638;9.216;2023-08-01T05:29:22;4.30;;;2.60;;
32032;SDS011;31720;52.638;9.216;2023-08-01T05:32:23;5.28;;;2.85;;
32032;SDS011;31720;52.638;9.216;2023-08-01T05:35:25;5.50;;;3.25;;
32032;SDS011;31720;52.638;9.216;2023-08-01T05:38:28;4.63;;;3.20;;
32032;SDS011;31720;52.638;9.216;2023-08-01T05:41:29;5.93;;;3.30;;
32032;SDS011;31720;52.638;9.216;2023-08-01T05:44:30;6.55;;;3.70;;
32032;SDS011;31720;52.638;9.216;2023-08-01T05:47:32;6.47;;;3.85;;
32032;SDS011;31720;52.638;9.216;2023-08-01T05:50:34;12.80;;;4.00;;
32032;SDS011;31720;52.638;9.216;2023-08-01T05:53:37;11.30;;;4.70;;
32032;SDS011;31720;52.638;9.216;2023-08-01T05:56:38;9.55;;;5.38;;
32032;SDS011;31720;52.638;9.216;2023-08-01T05:59:40;6.22;;;4.25;;
32032;SDS011;31720;52.638;9.216;2023-08-01T06:02:41;8.05;;;4.25;;
32032;SDS011;31720;52.638;9.216;2023-08-01T06:05:42;8.77;;;4.35;;
32032;SDS011;31720;52.638;9.216;2023-08-01T06:08:45;13.82;;;4.40;;
32032;SDS011;31720;52.638;9.216;2023-08-01T06:11:47;8.50;;;3.58;;
32032;SDS011;31720;52.638;9.216;2023-08-01T06:14:48;10.10;;;4.63;;
32032;SDS011;31720;52.638;9.216;2023-08-01T06:17:49;7.47;;;4.10;;
32032;SDS011;31720;52.638;9.216;2023-08-01T06:20:51;12.07;;;4.88;;
32032;SDS011;31720;52.638;9.216;2023-08-01T06:23:53;11.45;;;5.15;;
32032;SDS011;31720;52.638;9.216;2023-08-01T06:26:55;14.43;;;5.38;;
32032;SDS011;31720;52.638;9.216;2023-08-01T06:29:56;11.07;;;5.13;;
32032;SDS011;31720;52.638;9.216;2023-08-01T06:32:58;7.50;;;4.25;;
32032;SDS011;31720;52.638;9.216;2023-08-01T06:35:59;15.65;;;5.47;;
32032;SDS011;31720;52.638;9.216;2023-08-01T06:39:02;9.70;;;4.93;;
32032;SDS011;31720;52.638;9.216;2023-08-01T06:42:04;15.27;;;4.78;;
32032;SDS011;31720;52.638;9.216;2023-08-01T06:45:06;8.13;;;4.72;;
32032;SDS011;31720;52.638;9.216;2023-08-01T06:48:08;12.68;;;5.05;;
32032;SDS011;31720;52.638;9.216;2023-08-01T06:51:09;8.40;;;4.68;;
32032;SDS011;31720;52.638;9.216;2023-08-01T06:54:12;8.60;;;4.95;;
32032;SDS011;31720;52.638;9.216;2023-08-01T06:57:14;9.48;;;5.07;;
32032;SDS011;31720;52.638;9.216;2023-08-01T07:00:15;7.10;;;4.63;;
32032;SDS011;31720;52.638;9.216;2023-08-01T07:03:17;14.73;;;5.25;;
32032;SDS011;31720;52.638;9.216;2023-08-01T07:06:18;6.85;;;4.28;;
32032;SDS011;31720;52.638;9.216;2023-08-01T07:09:21;9.30;;;5.22;;
32032;SDS011;31720;52.638;9.216;2023-08-01T07:12:23;7.97;;;4.30;;
32032;SDS011;31720;52.638;9.216;2023-08-01T07:15:24;11.43;;;5.15;;
32032;SDS011;31720;52.638;9.216;2023-08-01T07:18:26;9.15;;;4.80;;
32032;SDS011;31720;52.638;9.216;2023-08-01T07:21:27;10.10;;;5.22;;
32032;SDS011;31720;52.638;9.216;2023-08-01T07:24:31;6.75;;;4.03;;
32032;SDS011;31720;52.638;9.216;2023-08-01T07:27:32;10.40;;;5.10;;
32032;SDS011;31720;52.638;9.216;2023-08-01T07:30:33;16.05;;;5.43;;
32032;SDS011;31720;52.638;9.216;2023-08-01T07:33:35;11.35;;;4.30;;
32032;SDS011;31720;52.638;9.216;2023-08-01T07:36:36;12.18;;;5.22;;
32032;SDS011;31720;52.638;9.216;2023-08-01T07:39:39;12.10;;;4.40;;
32032;SDS011;31720;52.638;9.216;2023-08-01T07:42:40;7.43;;;4.22;;
32032;SDS011;31720;52.638;9.216;2023-08-01T07:45:42;8.75;;;4.20;;
32032;SDS011;31720;52.638;9.216;2023-08-01T07:48:43;7.82;;;3.13;;
32032;SDS011;31720;52.638;9.216;2023-08-01T07:51:45;8.43;;;3.10;;
32032;SDS011;31720;52.638;9.216;2023-08-01T07:54:47;6.43;;;3.38;;
32032;SDS011;31720;52.638;9.216;2023-08-01T07:57:49;3.45;;;2.40;;
32032;SDS011;31720;52.638;9.216;2023-08-01T08:00:50;7.18;;;2.90;;
32032;SDS011;31720;52.638;9.216;2023-08-01T08:03:52;7.93;;;3.42;;
32032;SDS011;31720;52.638;9.216;2023-08-01T08:06:53;5.97;;;3.20;;
32032;SDS011;31720;52.638;9.216;2023-08-01T08:09:56;8.65;;;3.17;;
32032;SDS011;31720;52.638;9.216;2023-08-01T08:12:57;8.23;;;3.03;;
32032;SDS011;31720;52.638;9.216;2023-08-01T08:15:59;6.22;;;2.92;;
32032;SDS011;31720;52.638;9.216;2023-08-01T08:19:00;10.77;;;3.55;;
32032;SDS011;31720;52.638;9.216;2023-08-01T08:22:01;7.07;;;2.90;;
32032;SDS011;31720;52.638;9.216;2023-08-01T08:25:05;4.78;;;2.70;;
32032;SDS011;31720;52.638;9.216;2023-08-01T08:28:07;5.85;;;2.60;;
32032;SDS011;31720;52.638;9.216;2023-08-01T08:31:08;4.30;;;2.60;;
32032;SDS011;31720;52.638;9.216;2023-08-01T08:34:10;11.05;;;2.30;;
32032;SDS011;31720;52.638;9.216;2023-08-01T08:37:11;5.57;;;2.63;;
32032;SDS011;31720;52.638;9.216;2023-08-01T08:40:14;4.32;;;1.98;;
32032;SDS011;31720;52.638;9.216;2023-08-01T08:43:15;4.95;;;2.30;;
32032;SDS011;31720;52.638;9.216;2023-08-01T08:46:18;5.10;;;1.95;;
32032;SDS011;31720;52.638;9.216;2023-08-01T08:49:22;7.30;;;2.13;;
32032;SDS011;31720;52.638;9.216;2023-08-01T08:52:26;4.78;;;2.10;;
32032;SDS011;31720;52.638;9.216;2023-08-01T08:55:30;4.65;;;1.77;;
32032;SDS011;31720;52.638;9.216;2023-08-01T08:58:33;9.55;;;2.03;;
32032;SDS011;31720;52.638;9.216;2023-08-01T09:01:34;4.43;;;1.95;;
32032;SDS011;31720;52.638;9.216;2023-08-01T09:04:36;3.03;;;1.70;;
32032;SDS011;31720;52.638;9.216;2023-08-01T09:07:38;5.93;;;1.88;;
32032;SDS011;31720;52.638;9.216;2023-08-01T09:10:44;3.58;;;1.65;;
32032;SDS011;31720;52.638;9.216;2023-08-01T09:13:45;8.85;;;2.58;;
32032;SDS011;31720;52.638;9.216;2023-08-01T09:16:48;6.50;;;2.58;;
32032;SDS011;31720;52.638;9.216;2023-08-01T09:19:54;6.65;;;2.45;;
32032;SDS011;31720;52.638;9.216;2023-08-01T09:22:56;4.13;;;1.58;;
32032;SDS011;31720;52.638;9.216;2023-08-01T09:25:59;7.03;;;2.45;;
32032;SDS011;31720;52.638;9.216;2023-08-01T09:29:00;7.05;;;2.22;;
32032;SDS011;31720;52.638;9.216;2023-08-01T09:32:11;4.93;;;1.70;;
32032;SDS011;31720;52.638;9.216;2023-08-01T09:35:13;6.20;;;1.20;;
32032;SDS011;31720;52.638;9.216;2023-08-01T09:38:15;11.10;;;1.67;;
32032;SDS011;31720;52.638;9.216;2023-08-01T09:41:18;7.40;;;1.77;;
32032;SDS011;31720;52.638;9.216;2023-08-01T09:44:20;3.60;;;1.10;;
32032;SDS011;31720;52.638;9.216;2023-08-01T09:47:21;6.43;;;1.25;;
32032;SDS011;31720;52.638;9.216;2023-08-01T09:50:23;3.50;;;0.80;;
32032;SDS011;31720;52.638;9.216;2023-08-01T09:53:25;1.25;;;0.90;;
32032;SDS011;31720;52.638;9.216;2023-08-01T09:56:27;3.63;;;1.33;;
32032;SDS011;31720;52.638;9.216;2023-08-01T09:59:29;2.55;;;0.80;;
32032;SDS011;31720;52.638;9.216;2023-08-01T10:02:31;1.38;;;0.90;;
32032;SDS011;31720;52.638;9.216;2023-08-01T10:05:34;0.73;;;0.60;;
32032;SDS011;31720;52.638;9.216;2023-08-01T10:08:39;0.85;;;0.60;;
32032;SDS011;31720;52.638;9.216;2023-08-01T10:11:42;3.00;;;1.55;;
32032;SDS011;31720;52.638;9.216;2023-08-01T10:14:45;3.42;;;0.70;;
32032;SDS011;31720;52.638;9.216;2023-08-01T10:17:46;1.45;;;0.52;;
32032;SDS011;31720;52.638;9.216;2023-08-01T10:20:48;0.90;;;0.68;;
32032;SDS011;31720;52.638;9.216;2023-08-01T10:23:50;4.13;;;1.00;;
32032;SDS011;31720;52.638;9.216;2023-08-01T10:26:54;1.33;;;0.75;;
32032;SDS011;31720;52.638;9.216;2023-08-01T10:29:58;2.95;;;1.23;;
32032;SDS011;31720;52.638;9.216;2023-08-01T10:33:01;2.65;;;1.05;;
32032;SDS011;31720;52.638;9.216;2023-08-01T10:36:11;4.00;;;0.98;;
32032;SDS011;31720;52.638;9.216;2023-08-01T10:39:20;4.28;;;1.10;;
32032;SDS011;31720;52.638;9.216;2023-08-01T10:42:23;1.00;;;0.55;;
32032;SDS011;31720;52.638;9.216;2023-08-01T10:45:25;7.15;;;0.90;;
32032;SDS011;31720;52.638;9.216;2023-08-01T10:48:28;2.10;;;0.90;;
32032;SDS011;31720;52.638;9.216;2023-08-01T10:51:34;0.88;;;0.63;;
32032;SDS011;31720;52.638;9.216;2023-08-01T10:54:36;1.85;;;0.80;;
32032;SDS011;31720;52.638;9.216;2023-08-01T10:57:40;2.65;;;0.80;;
32032;SDS011;31720;52.638;9.216;2023-08-01T11:00:56;1.95;;;0.77;;
32032;SDS011;31720;52.638;9.216;2023-08-01T11:03:58;1.40;;;0.95;;
32032;SDS011;31720;52.638;9.216;2023-08-01T11:06:59;2.63;;;0.93;;
32032;SDS011;31720;52.638;9.216;2023-08-01T11:10:03;3.35;;;1.17;;
32032;SDS011;31720;52.638;9.216;2023-08-01T11:13:11;6.20;;;1.15;;
32032;SDS011;31720;52.638;9.216;2023-08-01T11:16:13;2.88;;;1.20;;
32032;SDS011;31720;52.638;9.216;2023-08-01T11:19:17;3.22;;;1.45;;
32032;SDS011;31720;52.638;9.216;2023-08-01T11:22:19;6.45;;;1.73;;
32032;SDS011;31720;52.638;9.216;2023-08-01T11:25:30;4.57;;;1.52;;
32032;SDS011;31720;52.638;9.216;2023-08-01T11:28:37;4.30;;;1.30;;
32032;SDS011;31720;52.638;9.216;2023-08-01T11:31:38;4.38;;;1.23;;
32032;SDS011;31720;52.638;9.216;2023-08-01T11:34:41;1.60;;;1.10;;
32032;SDS011;31720;52.638;9.216;2023-08-01T11:37:44;4.13;;;1.17;;
32032;SDS011;31720;52.638;9.216;2023-08-01T11:40:46;2.95;;;1.08;;
32032;SDS011;31720;52.638;9.216;2023-08-01T11:43:50;1.63;;;1.13;;
32032;SDS011;31720;52.638;9.216;2023-08-01T11:46:52;2.58;;;0.95;;
32032;SDS011;31720;52.638;9.216;2023-08-01T11:49:53;4.72;;;1.98;;
32032;SDS011;31720;52.638;9.216;2023-08-01T11:52:55;2.53;;;0.90;;
32032;SDS011;31720;52.638;9.216;2023-08-01T11:55:56;1.42;;;0.88;;
32032;SDS011;31720;52.638;9.216;2023-08-01T11:58:59;3.22;;;1.20;;
32032;SDS011;31720;52.638;9.216;2023-08-01T12:02:00;3.80;;;1.40;;
32032;SDS011;31720;52.638;9.216;2023-08-01T12:05:02;2.72;;;1.20;;
32032;SDS011;31720;52.638;9.216;2023-08-01T12:08:10;2.65;;;1.05;;
32032;SDS011;31720;52.638;9.216;2023-08-01T12:11:19;3.67;;;1.08;;
32032;SDS011;31720;52.638;9.216;2023-08-01T12:14:22;2.58;;;1.08;;
32032;SDS011;31720;52.638;9.216;2023-08-01T12:17:24;3.97;;;1.60;;
32032;SDS011;31720;52.638;9.216;2023-08-01T12:20:25;3.78;;;1.52;;
32032;SDS011;31720;52.638;9.216;2023-08-01T12:23:26;3.35;;;1.02;;
32032;SDS011;31720;52.638;9.216;2023-08-01T12:26:28;4.45;;;1.38;;
32032;SDS011;31720;52.638;9.216;2023-08-01T12:29:31;5.45;;;1.40;;
32032;SDS011;31720;52.638;9.216;2023-08-01T12:32:32;2.05;;;1.20;;
32032;SDS011;31720;52.638;9.216;2023-08-01T12:35:38;5.13;;;1.25;;
32032;SDS011;31720;52.638;9.216;2023-08-01T12:38:40;3.53;;;1.10;;
32032;SDS011;31720;52.638;9.216;2023-08-01T12:41:41;3.25;;;1.27;;
32032;SDS011;31720;52.638;9.216;2023-08-01T12:44:44;2.65;;;0.95;;
32032;SDS011;31720;52.638;9.216;2023-08-01T12:47:45;4.35;;;1.00;;
32032;SDS011;31720;52.638;9.216;2023-08-01T12:50:47;4.68;;;1.00;;
32032;SDS011;31720;52.638;9.216;2023-08-01T12:53:49;3.20;;;1.27;;
32032;SDS011;31720;52.638;9.216;2023-08-01T12:56:50;2.65;;;1.25;;
32032;SDS011;31720;52.638;9.216;2023-08-01T12:59:53;2.65;;;1.10;;
32032;SDS011;31720;52.638;9.216;2023-08-01T13:02:54;4.13;;;1.10;;
32032;SDS011;31720;52.638;9.216;2023-08-01T13:05:56;3.05;;;1.25;;
32032;SDS011;31720;52.638;9.216;2023-08-01T13:08:58;12.60;;;1.42;;
32032;SDS011;31720;52.638;9.216;2023-08-01T13:11:59;2.58;;;1.60;;
32032;SDS011;31720;52.638;9.216;2023-08-01T13:15:03;3.60;;;1.50;;
32032;SDS011;31720;52.638;9.216;2023-08-01T13:18:05;3.10;;;1.40;;
32032;SDS011;31720;52.638;9.216;2023-08-01T13:21:07;1.92;;;1.05;;
32032;SDS011;31720;52.638;9.216;2023-08-01T13:24:08;1.23;;;0.80;;
32032;SDS011;31720;52.638;9.216;2023-08-01T13:27:09;5.50;;;1.75;;
32032;SDS011;31720;52.638;9.216;2023-08-01T13:30:12;2.53;;;1.05;;
32032;SDS011;31720;52.638;9.216;2023-08-01T13:33:14;1.25;;;0.60;;
32032;SDS011;31720;52.638;9.216;2023-08-01T13:36:16;2.78;;;0.80;;
32032;SDS011;31720;52.638;9.216;2023-08-01T13:39:18;0.80;;;0.70;;
32032;SDS011;31720;52.638;9.216;2023-08-01T13:42:19;2.22;;;0.70;;
32032;SDS011;31720;52.638;9.216;2023-08-01T13:45:22;2.05;;;0.80;;
32032;SDS011;31720;52.638;9.216;2023-08-01T13:48:23;2.28;;;0.85;;
32032;SDS011;31720;52.638;9.216;2023-08-01T13:51:25;1.27;;;0.90;;
32032;SDS011;31720;52.638;9.216;2023-08-01T13:54:26;3.15;;;1.00;;
32032;SDS011;31720;52.638;9.216;2023-08-01T13:57:28;0.70;;;0.70;;
32032;SDS011;31720;52.638;9.216;2023-08-01T14:00:31;0.93;;;0.70;;
32032;SDS011;31720;52.638;9.216;2023-08-01T14:03:32;2.20;;;0.63;;
32032;SDS011;31720;52.638;9.216;2023-08-01T14:06:34;1.45;;;0.82;;
32032;SDS011;31720;52.638;9.216;2023-08-01T14:09:35;1.33;;;1.05;;
32032;SDS011;31720;52.638;9.216;2023-08-01T14:12:37;4.22;;;0.82;;
32032;SDS011;31720;52.638;9.216;2023-08-01T14:15:39;5.22;;;0.88;;
32032;SDS011;31720;52.638;9.216;2023-08-01T14:18:41;2.58;;;0.80;;
32032;SDS011;31720;52.638;9.216;2023-08-01T14:21:44;0.65;;;0.50;;
32032;SDS011;31720;52.638;9.216;2023-08-01T14:24:45;0.98;;;0.63;;
32032;SDS011;31720;52.638;9.216;2023-08-01T14:27:46;1.13;;;0.75;;
32032;SDS011;31720;52.638;9.216;2023-08-01T14:30:49;3.30;;;0.50;;
32032;SDS011;31720;52.638;9.216;2023-08-01T14:33:51;0.75;;;0.60;;
32032;SDS011;31720;52.638;9.216;2023-08-01T14:36:52;2.00;;;0.80;;
32032;SDS011;31720;52.638;9.216;2023-08-01T14:39:53;2.60;;;1.13;;
32032;SDS011;31720;52.638;9.216;2023-08-01T14:42:55;1.95;;;0.65;;
32032;SDS011;31720;52.638;9.216;2023-08-01T14:45:58;3.08;;;0.90;;
32032;SDS011;31720;52.638;9.216;2023-08-01T14:49:01;1.35;;;0.73;;
32032;SDS011;31720;52.638;9.216;2023-08-01T14:52:02;5.22;;;1.70;;
32032;SDS011;31720;52.638;9.216;2023-08-01T14:55:04;1.40;;;0.50;;
32032;SDS011;31720;52.638;9.216;2023-08-01T14:58:07;0.88;;;0.50;;
32032;SDS011;31720;52.638;9.216;2023-08-01T15:01:12;1.85;;;0.52;;
32032;SDS011;31720;52.638;9.216;2023-08-01T15:04:14;0.60;;;0.52;;
32032;SDS011;31720;52.638;9.216;2023-08-01T15:07:15;0.88;;;0.82;;
32032;SDS011;31720;52.638;9.216;2023-08-01T15:10:17;1.60;;;0.60;;
32032;SDS011;31720;52.638;9.216;2023-08-01T15:13:18;1.58;;;0.88;;
32032;SDS011;31720;52.638;9.216;2023-08-01T15:16:21;2.92;;;0.88;;
32032;SDS011;31720;52.638;9.216;2023-08-01T15:19:22;3.75;;;2.15;;
32032;SDS011;31720;52.638;9.216;2023-08-01T15:22:24;2.70;;;0.47;;
32032;SDS011;31720;52.638;9.216;2023-08-01T15:25:25;1.00;;;0.55;;
32032;SDS011;31720;52.638;9.216;2023-08-01T15:28:27;3.25;;;1.30;;
32032;SDS011;31720;52.638;9.216;2023-08-01T15:31:29;1.08;;;0.60;;
32032;SDS011;31720;52.638;9.216;2023-08-01T15:34:31;1.50;;;0.60;;
32032;SDS011;31720;52.638;9.216;2023-08-01T15:37:32;2.60;;;0.60;;
32032;SDS011;31720;52.638;9.216;2023-08-01T15:40:33;0.65;;;0.43;;
32032;SDS011;31720;52.638;9.216;2023-08-01T15:43:35;1.08;;;0.65;;
32032;SDS011;31720;52.638;9.216;2023-08-01T15:46:39;2.20;;;0.70;;
32032;SDS011;31720;52.638;9.216;2023-08-01T15:49:41;2.65;;;0.47;;
32032;SDS011;31720;52.638;9.216;2023-08-01T15:52:42;3.97;;;0.70;;
32032;SDS011;31720;52.638;9.216;2023-08-01T15:55:43;1.33;;;0.75;;
32032;SDS011;31720;52.638;9.216;2023-08-01T15:58:45;4.28;;;0.77;;
32032;SDS011;31720;52.638;9.216;2023-08-01T16:01:48;3.92;;;0.80;;
32032;SDS011;31720;52.638;9.216;2023-08-01T16:04:49;2.88;;;0.82;;
32032;SDS011;31720;52.638;9.216;2023-08-01T16:07:50;3.35;;;0.90;;
32032;SDS011;31720;52.638;9.216;2023-08-01T16:10:52;1.63;;;0.68;;
32032;SDS011;31720;52.638;9.216;2023-08-01T16:13:53;2.33;;;0.80;;
32032;SDS011;31720;52.638;9.216;2023-08-01T16:16:56;2.80;;;0.90;;
32032;SDS011;31720;52.638;9.216;2023-08-01T16:19:57;1.23;;;0.63;;
32032;SDS011;31720;52.638;9.216;2023-08-01T16:22:59;2.08;;;0.70;;
32032;SDS011;31720;52.638;9.216;2023-08-01T16:26:00;1.17;;;0.60;;
32032;SDS011;31720;52.638;9.216;2023-08-01T16:29:04;4.00;;;0.80;;
32032;SDS011;31720;52.638;9.216;2023-08-01T16:32:07;4.07;;;1.05;;
32032;SDS011;31720;52.638;9.216;2023-08-01T16:35:09;1.60;;;0.68;;
32032;SDS011;31720;52.638;9.216;2023-08-01T16:38:10;1.50;;;0.85;;
32032;SDS011;31720;52.638;9.216;2023-08-01T16:41:11;1.50;;;0.70;;
32032;SDS011;31720;52.638;9.216;2023-08-01T16:44:14;3.95;;;0.80;;
32032;SDS011;31720;52.638;9.216;2023-08-01T16:47:17;1.98;;;0.73;;
32032;SDS011;31720;52.638;9.216;2023-08-01T16:50:19;1.25;;;0.85;;
32032;SDS011;31720;52.638;9.216;2023-08-01T16:53:21;1.52;;;0.77;;
32032;SDS011;31720;52.638;9.216;2023-08-01T16:56:23;2.25;;;0.70;;
32032;SDS011;31720;52.638;9.216;2023-08-01T16:59:24;0.90;;;0.73;;
32032;SDS011;31720;52.638;9.216;2023-08-01T17:02:27;1.30;;;0.68;;
32032;SDS011;31720;52.638;9.216;2023-08-01T17:05:28;2.95;;;0.77;;
32032;SDS011;31720;52.638;9.216;2023-08-01T17:08:30;2.90;;;0.95;;
32032;SDS011;31720;52.638;9.216;2023-08-01T17:11:31;0.85;;;0.43;;
32032;SDS011;31720;52.638;9.216;2023-08-01T17:14:33;0.82;;;0.70;;
32032;SDS011;31720;52.638;9.216;2023-08-01T17:17:35;2.38;;;0.77;;
32032;SDS011;31720;52.638;9.216;2023-08-01T17:20:38;4.50;;;1.13;;
32032;SDS011;31720;52.638;9.216;2023-08-01T17:23:40;2.80;;;0.77;;
32032;SDS011;31720;52.638;9.216;2023-08-01T17:26:41;1.75;;;0.93;;
32032;SDS011;31720;52.638;9.216;2023-08-01T17:29:43;2.35;;;0.65;;
32032;SDS011;31720;52.638;9.216;2023-08-01T17:32:47;2.33;;;1.17;;
32032;SDS011;31720;52.638;9.216;2023-08-01T17:35:50;1.73;;;0.60;;
32032;SDS011;31720;52.638;9.216;2023-08-01T17:38:51;3.42;;;1.20;;
32032;SDS011;31720;52.638;9.216;2023-08-01T17:41:52;0.95;;;0.70;;
32032;SDS011;31720;52.638;9.216;2023-08-01T17:44:56;1.27;;;0.82;;
32032;SDS011;31720;52.638;9.216;2023-08-01T17:47:59;2.50;;;1.00;;
32032;SDS011;31720;52.638;9.216;2023-08-01T17:51:00;5.47;;;1.40;;
32032;SDS011;31720;52.638;9.216;2023-08-01T17:54:02;2.97;;;0.63;;
32032;SDS011;31720;52.638;9.216;2023-08-01T17:57:03;2.88;;;1.00;;
32032;SDS011;31720;52.638;9.216;2023-08-01T18:00:05;1.90;;;0.73;;
32032;SDS011;31720;52.638;9.216;2023-08-01T18:03:09;5.00;;;1.08;;
32032;SDS011;31720;52.638;9.216;2023-08-01T18:06:11;1.33;;;0.70;;
32032;SDS011;31720;52.638;9.216;2023-08-01T18:09:13;1.83;;;0.80;;
32032;SDS011;31720;52.638;9.216;2023-08-01T18:12:18;3.72;;;1.20;;
32032;SDS011;31720;52.638;9.216;2023-08-01T18:15:20;2.10;;;0.60;;
32032;SDS011;31720;52.638;9.216;2023-08-01T18:18:22;0.77;;;0.60;;